Pagina principale
METAR-TAF:

METAR-TAF

Aeroporti :

Wings Field

Filadelfia / Blue Bell, Pennsylvania, Stati Uniti

latitudine: 40-08-15N, longitudine: 075-15-54W, altezza: 92 m

Osservazione

Il bollettino è stato emesso 28 minuti fa, alle 09:55 UTC
Vento calmo
Temperature 13°C
Umidità 94%
Pressione 1023 hPa
Visibilità: 16.1 km
Cielo sereno

METAR: KLOM 230955Z AUTO 00000KT 10SM CLR 13/12 A3022 RMK AO1

Ora: 06:23 (10:23 UTC)


TAF: mancante

Osservazioni e previsioni meteorologiche di più di 4000 aeroporti (messaggi METAR e TAF).

Le stazioni disponibili sono rappresentate dai dischi gialli e rossi sulla carta.

Puntare il mouse per vedere il nome della stazione.

Clicca sopra per visualizzare le osservazioni e previsioni meteorologiche.

Per cambiare la mappa : fare clic sui pulsanti verdi con una croce nera per ingrandire, il pulsante verde con un trattino per diminuire, o sulla freccia verde per le mappe adiacenti.


METAR-TAF: